createdAt,value
2022-12-08T00:01:19.350Z,100.00
2022-12-08T00:03:47.632Z,99.98
2022-12-08T00:06:43.848Z,99.76
2022-12-08T00:09:23.805Z,99.66
2022-12-08T00:11:53.218Z,99.51
2022-12-08T00:14:21.016Z,98.84
2022-12-08T00:16:48.592Z,98.97
2022-12-08T00:19:16.150Z,98.78
2022-12-08T00:21:43.707Z,98.59
2022-12-08T00:24:11.421Z,98.73
2022-12-08T00:26:40.352Z,99.02
2022-12-08T00:29:10.018Z,98.90
2022-12-08T00:31:41.032Z,99.24
2022-12-08T00:34:09.094Z,98.69
2022-12-08T00:36:36.674Z,97.93
2022-12-08T00:39:04.542Z,98.59
2022-12-08T00:41:49.886Z,99.06
2022-12-08T00:44:20.054Z,98.78
2022-12-08T00:46:48.966Z,98.81
2022-12-08T00:49:17.325Z,98.68
2022-12-08T00:51:45.212Z,98.58
2022-12-08T00:54:13.230Z,98.51
2022-12-08T00:56:40.826Z,98.08
2022-12-08T00:59:08.891Z,97.91
2022-12-08T01:01:38.343Z,98.55
2022-12-08T01:04:07.153Z,98.69
2022-12-08T01:06:35.595Z,98.52
2022-12-08T01:09:03.178Z,97.42
2022-12-08T01:11:30.744Z,97.87
2022-12-08T01:13:58.424Z,97.23
2022-12-08T01:16:27.820Z,97.31
2022-12-08T01:18:58.181Z,97.42
2022-12-08T01:21:25.917Z,97.79
2022-12-08T01:23:54.817Z,97.94
2022-12-08T01:26:22.702Z,97.34
2022-12-08T01:28:50.626Z,97.72
2022-12-08T01:31:20.749Z,97.93
2022-12-08T01:33:49.190Z,98.00
2022-12-08T01:36:22.584Z,97.71
2022-12-08T01:38:50.749Z,97.96
2022-12-08T01:41:20.249Z,97.52
2022-12-08T01:44:02.418Z,97.80
2022-12-08T01:46:31.616Z,97.61
2022-12-08T01:49:04.487Z,97.48
2022-12-08T01:51:36.502Z,97.31
2022-12-08T01:54:06.686Z,97.08
2022-12-08T01:56:42.676Z,96.60
2022-12-08T01:59:12.658Z,96.83
2022-12-08T02:01:40.757Z,97.28
2022-12-08T02:04:08.394Z,96.62
2022-12-08T02:06:42.681Z,96.67
2022-12-08T02:09:10.829Z,97.08
2022-12-08T02:11:38.448Z,97.15
2022-12-08T02:14:08.417Z,97.16
2022-12-08T02:16:43.874Z,97.84
2022-12-08T02:19:42.153Z,97.74
2022-12-08T02:22:15.241Z,97.40
2022-12-08T02:24:50.879Z,97.70
2022-12-08T02:27:41.541Z,97.78
2022-12-08T02:30:25.598Z,98.53
2022-12-08T02:33:25.150Z,98.00
2022-12-08T02:36:00.868Z,98.28
2022-12-08T02:38:38.128Z,98.19
2022-12-08T02:41:17.972Z,99.15
2022-12-08T02:43:48.447Z,98.44
2022-12-08T02:46:22.870Z,98.75
2022-12-08T02:48:52.372Z,98.82
2022-12-08T02:51:21.219Z,98.42
2022-12-08T02:53:49.710Z,98.59
2022-12-08T02:56:35.959Z,98.75
2022-12-08T02:59:14.477Z,99.00
2022-12-08T03:02:06.729Z,98.58
2022-12-08T03:04:42.306Z,98.53
2022-12-08T03:07:16.088Z,99.00
2022-12-08T03:09:48.234Z,98.91
2022-12-08T03:12:21.275Z,98.50
2022-12-08T03:14:54.181Z,98.78
2022-12-08T03:17:24.545Z,98.67
2022-12-08T03:19:53.318Z,98.98
2022-12-08T03:22:25.533Z,98.98
2022-12-08T03:24:53.762Z,98.73
2022-12-08T03:27:24.831Z,98.92
2022-12-08T03:29:55.019Z,98.69
2022-12-08T03:32:27.452Z,99.09
2022-12-08T03:34:56.918Z,99.11
2022-12-08T03:37:27.880Z,99.38
2022-12-08T03:39:55.589Z,99.30
2022-12-08T03:42:23.296Z,98.93
2022-12-08T03:44:50.790Z,99.46
2022-12-08T03:47:18.345Z,98.80
2022-12-08T03:49:45.927Z,99.21
2022-12-08T03:52:13.486Z,98.89
2022-12-08T03:54:42.393Z,99.42
2022-12-08T03:57:10.060Z,99.64
2022-12-08T03:59:37.612Z,99.75
2022-12-08T04:02:05.224Z,99.63
2022-12-08T04:04:32.930Z,100.00
2022-12-08T04:07:00.426Z,99.79
2022-12-08T04:09:27.925Z,99.55
2022-12-08T04:11:56.765Z,99.25
2022-12-08T04:14:24.330Z,99.13
2022-12-08T04:16:51.855Z,99.01
2022-12-08T04:19:19.677Z,99.37
2022-12-08T04:21:47.193Z,98.90
2022-12-08T04:24:14.767Z,99.38
2022-12-08T04:26:42.358Z,99.80
2022-12-08T04:29:11.246Z,99.81
2022-12-08T04:31:38.886Z,99.68
2022-12-08T04:34:06.446Z,99.94
2022-12-08T04:36:34.069Z,99.49
2022-12-08T04:39:01.914Z,99.64
2022-12-08T04:41:29.453Z,99.35
2022-12-08T04:43:56.947Z,99.42
2022-12-08T04:46:25.898Z,99.49
2022-12-08T04:48:53.536Z,99.41
2022-12-08T04:51:21.650Z,98.88
2022-12-08T04:53:49.273Z,99.39
2022-12-08T04:56:18.841Z,99.50
2022-12-08T04:58:46.644Z,99.45
2022-12-08T05:01:15.226Z,99.39
2022-12-08T05:03:44.137Z,99.07
2022-12-08T05:06:13.300Z,98.85
2022-12-08T05:08:40.856Z,98.96
2022-12-08T05:11:10.299Z,98.82
2022-12-08T05:13:37.850Z,99.18
2022-12-08T05:16:06.687Z,99.17
2022-12-08T05:18:34.731Z,98.86
2022-12-08T05:21:04.545Z,98.21
2022-12-08T05:23:32.132Z,98.44
2022-12-08T05:25:59.674Z,98.49
2022-12-08T05:28:43.927Z,98.60
2022-12-08T05:31:12.746Z,98.87
2022-12-08T05:33:41.252Z,99.01
2022-12-08T05:36:11.034Z,99.62
2022-12-08T05:38:38.643Z,98.70
2022-12-08T05:41:06.962Z,98.44
2022-12-08T05:43:34.665Z,97.93
2022-12-08T05:46:02.372Z,97.74
2022-12-08T05:48:30.020Z,98.06
2022-12-08T05:50:57.683Z,98.59
2022-12-08T05:53:26.751Z,98.24
2022-12-08T05:55:54.438Z,98.46
2022-12-08T05:58:23.927Z,98.82
2022-12-08T06:00:51.828Z,98.79
2022-12-08T06:03:20.621Z,98.15
2022-12-08T06:05:48.909Z,97.95
2022-12-08T06:08:16.624Z,97.98
2022-12-08T06:10:46.208Z,98.03
2022-12-08T06:13:13.915Z,97.63
2022-12-08T06:15:42.214Z,97.54
2022-12-08T06:18:11.524Z,98.41
2022-12-08T06:20:39.069Z,98.62
2022-12-08T06:23:06.570Z,99.00
2022-12-08T06:25:34.084Z,99.64
2022-12-08T06:28:05.229Z,99.87
2022-12-08T06:30:32.796Z,99.65
2022-12-08T06:33:00.374Z,99.31
2022-12-08T06:35:27.965Z,99.38
2022-12-08T06:37:55.503Z,99.56
2022-12-08T06:40:23.057Z,99.25
2022-12-08T06:42:50.606Z,99.11
2022-12-08T06:45:19.637Z,99.06
2022-12-08T06:47:47.224Z,98.87
2022-12-08T06:50:15.627Z,99.27
2022-12-08T06:52:54.243Z,99.38
2022-12-08T06:55:51.252Z,99.23
2022-12-08T06:58:14.860Z,99.66
2022-12-08T07:00:43.981Z,100.00
2022-12-08T07:03:12.801Z,99.78
2022-12-08T07:05:40.423Z,99.86
2022-12-08T07:08:10.012Z,100.00
2022-12-08T07:10:37.955Z,99.82
2022-12-08T07:13:05.780Z,99.92
2022-12-08T07:15:33.311Z,100.00
2022-12-08T07:18:02.203Z,99.66
2022-12-08T07:20:29.802Z,99.64
2022-12-08T07:22:57.423Z,100.00
2022-12-08T07:25:25.014Z,99.38
2022-12-08T07:27:53.232Z,99.76
2022-12-08T07:30:21.041Z,99.05
2022-12-08T07:32:48.617Z,99.08
2022-12-08T07:35:17.782Z,98.85
2022-12-08T07:37:45.345Z,98.54
2022-12-08T07:40:14.342Z,98.15
2022-12-08T07:42:41.891Z,98.56
2022-12-08T07:45:10.455Z,98.51
2022-12-08T07:47:38.015Z,98.91
2022-12-08T07:50:06.986Z,99.36
2022-12-08T07:52:36.475Z,98.89
2022-12-08T07:55:04.198Z,98.66
2022-12-08T07:57:31.752Z,98.74
2022-12-08T08:00:02.146Z,99.12
2022-12-08T08:02:39.432Z,98.95
2022-12-08T08:05:08.038Z,99.08
2022-12-08T08:07:37.220Z,98.96
2022-12-08T08:10:06.736Z,99.02
2022-12-08T08:12:34.448Z,98.07
2022-12-08T08:15:03.113Z,98.74
2022-12-08T08:17:30.843Z,98.92
2022-12-08T08:19:58.632Z,98.54
2022-12-08T08:22:26.609Z,99.13
2022-12-08T08:24:55.729Z,98.89
2022-12-08T08:27:23.516Z,98.45
2022-12-08T08:29:51.013Z,98.95
2022-12-08T08:32:18.592Z,98.67
2022-12-08T08:34:46.163Z,98.81
2022-12-08T08:37:13.825Z,99.44
2022-12-08T08:39:42.916Z,99.21
2022-12-08T08:42:11.841Z,99.12
2022-12-08T08:44:39.901Z,99.38
2022-12-08T08:47:07.802Z,99.03
2022-12-08T08:49:36.843Z,99.50
2022-12-08T08:52:05.335Z,99.57
2022-12-08T08:54:33.585Z,99.57
2022-12-08T08:57:02.095Z,99.27
2022-12-08T08:59:31.185Z,98.99
2022-12-08T09:01:58.863Z,99.30
2022-12-08T09:04:26.579Z,99.77
2022-12-08T09:06:54.192Z,98.90
2022-12-08T09:09:21.799Z,99.25
2022-12-08T09:11:49.381Z,98.93
2022-12-08T09:14:17.012Z,98.34
2022-12-08T09:16:45.986Z,98.83
2022-12-08T09:19:13.613Z,97.75
2022-12-08T09:21:41.407Z,97.22
2022-12-08T09:24:15.360Z,97.13
2022-12-08T09:26:44.338Z,96.14
2022-12-08T09:29:13.623Z,95.58
2022-12-08T09:31:41.413Z,95.67
2022-12-08T09:34:11.549Z,96.47
2022-12-08T09:36:39.201Z,95.94
2022-12-08T09:39:06.796Z,95.97
2022-12-08T09:41:43.267Z,96.09
2022-12-08T09:44:34.179Z,95.93
2022-12-08T09:47:04.887Z,95.94
2022-12-08T09:49:39.741Z,96.61
2022-12-08T09:52:16.945Z,96.63
2022-12-08T09:54:44.553Z,95.90
2022-12-08T09:57:17.946Z,96.10
2022-12-08T09:59:50.801Z,95.63
2022-12-08T10:02:24.019Z,95.66
2022-12-08T10:04:55.834Z,96.33
2022-12-08T10:07:31.923Z,96.17
2022-12-08T10:10:06.791Z,96.36
2022-12-08T10:12:43.946Z,96.28
2022-12-08T10:15:31.614Z,96.79
2022-12-08T10:18:02.791Z,96.37
2022-12-08T10:20:41.877Z,97.19
2022-12-08T10:23:17.309Z,97.26
2022-12-08T10:25:48.140Z,97.60
2022-12-08T10:28:15.918Z,97.65
2022-12-08T10:30:43.616Z,97.15
2022-12-08T10:33:16.350Z,97.84
2022-12-08T10:35:47.766Z,98.09
2022-12-08T10:38:20.090Z,98.13
2022-12-08T10:40:49.247Z,97.03
2022-12-08T10:43:20.170Z,97.24
2022-12-08T10:45:47.755Z,97.09
2022-12-08T10:48:19.034Z,96.71
2022-12-08T10:50:54.124Z,96.34
2022-12-08T10:53:24.665Z,96.89
2022-12-08T10:55:54.127Z,97.12
2022-12-08T10:58:35.490Z,97.16
2022-12-08T11:01:07.100Z,95.57
2022-12-08T11:03:38.459Z,96.24
2022-12-08T11:06:17.274Z,97.02
2022-12-08T11:08:49.013Z,96.72
2022-12-08T11:11:17.116Z,96.90
2022-12-08T11:13:44.744Z,97.59
2022-12-08T11:16:15.650Z,97.50
2022-12-08T11:18:46.921Z,98.40
2022-12-08T11:21:18.197Z,97.89
2022-12-08T11:23:49.187Z,98.05
2022-12-08T11:26:25.177Z,98.36
2022-12-08T11:28:53.065Z,97.81
2022-12-08T11:31:30.164Z,99.30
2022-12-08T11:33:58.132Z,99.66
2022-12-08T11:36:32.855Z,98.11
2022-12-08T11:39:04.214Z,98.74
2022-12-08T11:41:38.278Z,97.50
2022-12-08T11:44:14.144Z,97.28
2022-12-08T11:46:48.225Z,97.18
2022-12-08T11:49:18.030Z,96.99
2022-12-08T11:51:51.974Z,97.66
2022-12-08T11:54:25.169Z,97.53
2022-12-08T11:56:55.550Z,97.47
2022-12-08T11:59:30.046Z,97.44
2022-12-08T12:01:59.209Z,97.98
2022-12-08T12:04:33.198Z,98.39
2022-12-08T12:07:29.354Z,98.08
2022-12-08T12:10:10.156Z,98.80
2022-12-08T12:12:56.727Z,98.70
2022-12-08T12:15:44.424Z,97.61
2022-12-08T12:18:23.121Z,97.80
2022-12-08T12:20:54.340Z,97.65
2022-12-08T12:23:29.631Z,96.75
2022-12-08T12:26:02.092Z,96.78
2022-12-08T12:28:40.219Z,96.83
2022-12-08T12:31:10.992Z,96.76
2022-12-08T12:33:38.756Z,96.76
2022-12-08T12:36:08.855Z,96.54
2022-12-08T12:38:57.618Z,96.87
2022-12-08T12:41:28.888Z,97.12
2022-12-08T12:44:44.136Z,97.15
2022-12-08T12:47:15.046Z,98.38
2022-12-08T12:50:08.279Z,98.95
2022-12-08T12:52:46.720Z,98.70
2022-12-08T12:55:52.883Z,98.91
2022-12-08T12:58:37.255Z,98.00
2022-12-08T13:01:42.138Z,98.44
2022-12-08T13:04:10.791Z,98.58
2022-12-08T13:06:42.376Z,98.67
2022-12-08T13:09:29.678Z,97.72
2022-12-08T13:12:00.636Z,97.52
2022-12-08T13:14:32.610Z,97.86
2022-12-08T13:17:02.604Z,97.13
2022-12-08T13:19:36.482Z,97.24
2022-12-08T13:22:04.090Z,97.66
2022-12-08T13:24:35.434Z,97.54
2022-12-08T13:27:34.580Z,97.20
2022-12-08T13:30:44.006Z,97.58
2022-12-08T13:33:18.374Z,97.94
2022-12-08T13:35:54.208Z,97.05
2022-12-08T13:38:23.518Z,96.86
2022-12-08T13:40:51.940Z,96.18
2022-12-08T13:43:43.493Z,95.45
2022-12-08T13:57:38.875Z,95.93
2022-12-08T14:00:15.766Z,95.61
2022-12-08T14:02:48.530Z,96.07
2022-12-08T14:05:21.694Z,96.11
2022-12-08T14:07:57.284Z,96.51
2022-12-08T14:10:29.169Z,96.55
2022-12-08T14:13:00.723Z,95.58
2022-12-08T14:15:34.032Z,95.86
2022-12-08T14:18:07.114Z,96.27
2022-12-08T14:20:57.859Z,95.81
2022-12-08T14:23:23.658Z,96.13
2022-12-08T14:25:51.219Z,96.00
2022-12-08T14:28:19.148Z,96.92
2022-12-08T14:30:49.603Z,96.39
2022-12-08T14:33:18.851Z,96.33
2022-12-08T14:35:51.747Z,96.78
2022-12-08T14:38:21.095Z,95.96
2022-12-08T14:40:49.847Z,96.05
2022-12-08T14:43:19.306Z,96.26
2022-12-08T14:45:53.222Z,95.88
2022-12-08T14:48:26.967Z,96.31
2022-12-08T14:51:05.455Z,95.90
2022-12-08T14:53:39.881Z,95.52
2022-12-08T14:56:18.627Z,95.70
2022-12-08T14:58:47.061Z,95.80
2022-12-08T15:01:16.962Z,95.93
2022-12-08T15:03:50.860Z,95.83
2022-12-08T15:06:22.314Z,95.98
2022-12-08T15:08:58.535Z,95.69
2022-12-08T15:11:33.051Z,95.29
2022-12-08T15:14:00.842Z,95.76
2022-12-08T15:16:31.884Z,95.48
2022-12-08T15:19:09.750Z,95.54
2022-12-08T15:21:41.124Z,96.13
2022-12-08T15:24:12.252Z,95.52
2022-12-08T15:26:44.678Z,95.42
2022-12-08T15:29:14.996Z,95.94
2022-12-08T15:31:42.572Z,95.76
2022-12-08T15:34:11.494Z,95.88
2022-12-08T15:36:39.959Z,95.28
2022-12-08T15:39:11.703Z,95.82
2022-12-08T15:41:39.196Z,95.72
2022-12-08T15:44:06.770Z,96.08
2022-12-08T15:46:34.348Z,96.36
2022-12-08T15:49:02.642Z,95.91
2022-12-08T15:51:36.327Z,96.12
2022-12-08T15:54:03.954Z,96.61
2022-12-08T15:56:34.235Z,96.25
2022-12-08T15:59:01.868Z,95.79
2022-12-08T16:01:29.422Z,95.86
2022-12-08T16:04:37.007Z,96.00
2022-12-08T16:09:39.265Z,95.86
2022-12-08T16:12:48.365Z,96.12
2022-12-08T16:18:06.334Z,95.41
2022-12-08T16:23:41.706Z,95.33
2022-12-08T16:29:00.606Z,95.26
2022-12-08T16:31:28.201Z,94.39
2022-12-08T16:33:55.797Z,94.76
2022-12-08T16:36:23.350Z,94.39
2022-12-08T16:38:52.175Z,94.47
2022-12-08T16:41:37.196Z,94.48
2022-12-08T16:44:06.664Z,94.73
2022-12-08T16:46:34.713Z,94.65
2022-12-08T16:49:02.249Z,95.23
2022-12-08T16:51:29.768Z,94.90
2022-12-08T16:53:58.821Z,95.05
2022-12-08T16:56:32.546Z,94.67
2022-12-08T16:59:01.035Z,94.63
2022-12-08T17:01:28.730Z,95.40
2022-12-08T17:06:43.950Z,95.43
2022-12-08T17:09:12.894Z,95.26
2022-12-08T17:11:43.350Z,94.79
2022-12-08T17:14:11.943Z,95.01
2022-12-08T17:16:39.560Z,94.86
2022-12-08T17:19:07.137Z,95.20
2022-12-08T17:21:34.876Z,94.58
2022-12-08T17:24:02.556Z,94.84
2022-12-08T17:26:31.444Z,94.30
2022-12-08T17:29:01.035Z,95.06
2022-12-08T17:31:31.032Z,95.37
2022-12-08T17:33:59.379Z,94.55
2022-12-08T17:36:26.961Z,94.38
2022-12-08T17:38:54.592Z,93.65
2022-12-08T17:41:22.167Z,93.94
2022-12-08T17:43:51.018Z,93.97
2022-12-08T17:46:18.874Z,94.35
2022-12-08T17:48:46.465Z,94.17
2022-12-08T17:51:14.020Z,93.54
2022-12-08T17:53:41.706Z,93.76
2022-12-08T17:56:16.436Z,93.94
2022-12-08T17:58:44.905Z,93.48
2022-12-08T18:01:14.630Z,93.28
2022-12-08T18:03:42.263Z,93.45
2022-12-08T18:06:12.366Z,93.38
2022-12-08T18:08:40.584Z,93.34
2022-12-08T18:11:13.019Z,93.20
2022-12-08T18:13:40.901Z,93.21
2022-12-08T18:16:08.649Z,92.94
2022-12-08T18:18:37.513Z,93.95
2022-12-08T18:21:05.372Z,93.84
2022-12-08T18:23:32.981Z,93.88
2022-12-08T18:26:00.512Z,94.35
2022-12-08T18:28:28.114Z,94.07
2022-12-08T18:30:55.665Z,94.29
2022-12-08T18:33:23.243Z,94.76
2022-12-08T18:35:52.230Z,94.15
2022-12-08T18:38:19.919Z,94.44
2022-12-08T18:40:47.429Z,93.54
2022-12-08T18:43:14.944Z,93.27
2022-12-08T18:45:42.549Z,94.17
2022-12-08T18:48:10.083Z,94.09
2022-12-08T18:50:37.722Z,93.71
2022-12-08T18:53:06.570Z,93.73
2022-12-08T18:55:34.062Z,93.56
2022-12-08T18:58:01.571Z,93.62
2022-12-08T19:00:29.159Z,94.16
2022-12-08T19:02:56.709Z,93.27
2022-12-08T19:05:24.243Z,93.39
2022-12-08T19:07:52.064Z,94.19
2022-12-08T19:10:21.121Z,94.68
2022-12-08T19:12:50.576Z,95.59
2022-12-08T19:15:18.118Z,95.13
2022-12-08T19:17:45.762Z,94.60
2022-12-08T19:20:14.409Z,95.04
2022-12-08T19:22:41.897Z,95.25
2022-12-08T19:25:09.796Z,95.80
2022-12-08T19:27:38.635Z,94.51
2022-12-08T19:30:07.766Z,94.82
2022-12-08T19:32:35.655Z,95.47
2022-12-08T19:35:07.035Z,95.93
2022-12-08T19:37:34.614Z,95.26
2022-12-08T19:40:19.948Z,94.39
2022-12-08T19:43:06.379Z,93.62
2022-12-08T19:45:36.290Z,93.72
2022-12-08T19:48:04.032Z,93.22
2022-12-08T19:50:37.824Z,92.36
2022-12-08T19:53:07.122Z,93.44
2022-12-08T19:55:34.842Z,93.38
2022-12-08T19:58:04.806Z,92.71
2022-12-08T20:00:33.744Z,92.48
2022-12-08T20:03:02.695Z,92.53
2022-12-08T20:05:32.055Z,91.59
2022-12-08T20:08:00.283Z,91.67
2022-12-08T20:10:30.184Z,91.89
2022-12-08T20:13:17.894Z,91.78
2022-12-08T20:15:47.291Z,92.20
2022-12-08T20:18:15.961Z,91.77
2022-12-08T20:20:44.888Z,92.01
2022-12-08T20:23:12.893Z,91.75
2022-12-08T20:25:41.425Z,91.98
2022-12-08T20:28:09.331Z,92.20
2022-12-08T20:30:39.824Z,91.88
2022-12-08T20:33:08.950Z,91.63
2022-12-08T20:35:36.570Z,91.18
2022-12-08T20:38:04.140Z,91.73
2022-12-08T20:40:31.742Z,92.33
2022-12-08T20:42:59.346Z,94.46
2022-12-08T20:45:26.894Z,93.84
2022-12-08T20:47:54.458Z,93.90
2022-12-08T20:50:23.358Z,94.25
2022-12-08T20:52:50.949Z,93.59
2022-12-08T20:55:18.830Z,93.33
2022-12-08T20:57:46.342Z,93.23
2022-12-08T21:00:14.812Z,94.59
2022-12-08T21:02:48.548Z,96.11
2022-12-08T21:05:19.143Z,95.91
2022-12-08T21:07:48.436Z,95.21
2022-12-08T21:10:16.202Z,94.69
2022-12-08T21:12:43.979Z,94.93
2022-12-08T21:15:13.211Z,94.63
2022-12-08T21:17:41.003Z,94.44
2022-12-08T21:20:09.628Z,93.89
2022-12-08T21:22:37.730Z,94.38
2022-12-08T21:25:10.149Z,94.25
2022-12-08T21:27:38.751Z,94.17
2022-12-08T21:30:08.116Z,94.70
2022-12-08T21:32:35.922Z,94.35
2022-12-08T21:35:03.771Z,94.46
2022-12-08T21:37:31.377Z,94.01
2022-12-08T21:39:59.049Z,95.17
2022-12-08T21:42:46.415Z,95.17
2022-12-08T21:45:15.957Z,94.38
2022-12-08T21:47:44.822Z,93.81
2022-12-08T21:50:13.044Z,93.74
2022-12-08T21:52:42.180Z,93.79
2022-12-08T21:55:12.171Z,93.88
2022-12-08T21:57:41.428Z,94.98
2022-12-08T22:00:14.381Z,94.28
2022-12-08T22:02:42.378Z,93.56
2022-12-08T22:05:11.132Z,94.13
2022-12-08T22:07:40.732Z,94.67
2022-12-08T22:10:10.409Z,94.70
2022-12-08T22:12:39.613Z,96.13
2022-12-08T22:15:10.698Z,95.49
2022-12-08T22:17:40.156Z,95.81
2022-12-08T22:20:11.611Z,95.46
2022-12-08T22:22:40.068Z,96.31
2022-12-08T22:25:10.961Z,96.16
2022-12-08T22:27:39.290Z,96.50
2022-12-08T22:30:10.320Z,96.53
2022-12-08T22:32:38.545Z,96.47
2022-12-08T22:35:06.877Z,97.06
2022-12-08T22:37:34.406Z,97.50
2022-12-08T22:40:02.030Z,97.44
2022-12-08T22:42:29.591Z,96.42
2022-12-08T22:44:57.240Z,96.40
2022-12-08T22:47:26.066Z,96.74
2022-12-08T22:49:53.621Z,97.10
2022-12-08T22:52:21.283Z,96.89
2022-12-08T22:54:48.980Z,96.49
2022-12-08T22:57:16.551Z,96.70
2022-12-08T22:59:44.253Z,95.70
2022-12-08T23:02:11.972Z,96.21
2022-12-08T23:04:41.199Z,95.72
2022-12-08T23:07:08.902Z,96.19
2022-12-08T23:09:36.415Z,96.60
2022-12-08T23:12:04.712Z,96.13
2022-12-08T23:14:32.362Z,95.91
2022-12-08T23:17:00.988Z,95.75
2022-12-08T23:19:28.751Z,96.33
2022-12-08T23:21:57.830Z,96.25
2022-12-08T23:24:25.453Z,95.79
2022-12-08T23:26:53.141Z,95.06
2022-12-08T23:29:20.666Z,95.29
2022-12-08T23:31:48.288Z,95.18
2022-12-08T23:34:15.967Z,94.92
2022-12-08T23:36:43.456Z,95.33
2022-12-08T23:39:12.801Z,94.48
2022-12-08T23:41:40.482Z,94.94
2022-12-08T23:44:09.108Z,95.31
2022-12-08T23:46:36.938Z,95.11
2022-12-08T23:49:05.009Z,95.01
2022-12-08T23:51:32.561Z,94.96
2022-12-08T23:54:00.265Z,94.70
2022-12-08T23:56:30.611Z,94.55
2022-12-08T23:58:58.558Z,95.37
